Time;durP1;ratioP1;P1;durP2;ratioP2;P2;SDS_P1;SDS_P2;PMS_P1;PMS_P2;Temp;Humidity;BMP_temperature;BMP_pressure;BME280_temperature;BME280_humidity;BME280_pressure;Samples;Min_cycle;Max_cycle;Signal;HPM_P1;HPM_P2
2022/05/12 00:01:14;;;;;;;13.73;3.42;;;;;;;15.26;100.00;97389.53;5133589;28;20051;-43
2022/05/12 00:03:41;;;;;;;8.77;3.20;;;;;;;15.18;100.00;97395.69;5133222;28;20066;-43
2022/05/12 00:06:08;;;;;;;8.40;3.30;;;;;;;15.14;100.00;97381.25;5133192;27;20092;-42
2022/05/12 00:08:35;;;;;;;14.85;2.75;;;;;;;15.13;100.00;97371.38;5132982;28;20054;-43
2022/05/12 00:11:01;;;;;;;14.07;4.28;;;;;;;15.09;100.00;97359.69;5133136;27;20434;-42
2022/05/12 00:13:28;;;;;;;13.05;3.90;;;;;;;15.03;100.00;97340.16;5132975;28;20050;-43
2022/05/12 00:15:55;;;;;;;6.47;3.00;;;;;;;14.99;100.00;97345.75;5133174;28;20422;-43
2022/05/12 00:18:21;;;;;;;6.40;3.55;;;;;;;14.92;100.00;97334.16;5132908;28;20071;-42
2022/05/12 00:20:48;;;;;;;15.40;5.18;;;;;;;14.87;100.00;97327.19;5132943;28;20047;-42
2022/05/12 00:23:16;;;;;;;11.23;4.53;;;;;;;14.79;100.00;97323.88;5132957;27;20050;-42
2022/05/12 00:25:45;;;;;;;4.20;2.63;;;;;;;14.73;100.00;97322.09;5132784;28;20498;-43
2022/05/12 00:28:11;;;;;;;7.93;2.90;;;;;;;14.73;100.00;97309.09;5133084;28;20175;-42
2022/05/12 00:30:39;;;;;;;12.85;2.85;;;;;;;14.73;100.00;97302.78;5132920;28;20051;-42
2022/05/12 00:33:06;;;;;;;8.65;3.30;;;;;;;14.64;100.00;97291.63;5132846;27;20057;-42
2022/05/12 00:35:32;;;;;;;8.57;3.35;;;;;;;14.62;100.00;97294.03;5132693;27;20051;-43
2022/05/12 00:37:59;;;;;;;8.00;2.78;;;;;;;14.58;100.00;97286.63;5133089;28;20047;-42
2022/05/12 00:40:25;;;;;;;8.30;2.92;;;;;;;14.50;100.00;97281.75;5132644;27;20506;-43
2022/05/12 00:42:55;;;;;;;10.63;3.25;;;;;;;14.47;100.00;97261.31;5132973;28;20051;-43
2022/05/12 00:45:22;;;;;;;12.98;3.45;;;;;;;14.44;100.00;97264.19;5132638;27;20430;-43
2022/05/12 00:47:49;;;;;;;9.10;3.45;;;;;;;14.38;100.00;97257.66;5132617;27;20047;-42
2022/05/12 00:50:15;;;;;;;10.52;3.55;;;;;;;14.38;100.00;97250.16;5132076;27;20047;-43
2022/05/12 00:52:43;;;;;;;12.98;3.42;;;;;;;14.34;100.00;97243.97;5132473;28;20093;-42
2022/05/12 00:55:15;;;;;;;7.07;3.42;;;;;;;14.26;100.00;97242.63;5132606;28;20062;-42
2022/05/12 00:57:48;;;;;;;10.38;3.53;;;;;;;14.23;100.00;97226.94;5132300;28;20062;-43
2022/05/12 01:00:16;;;;;;;6.15;3.42;;;;;;;14.19;100.00;97218.00;5132343;28;20058;-43
2022/05/12 01:02:46;;;;;;;17.98;4.10;;;;;;;14.12;100.00;97214.25;5132284;27;20047;-43
2022/05/12 01:05:14;;;;;;;5.88;3.22;;;;;;;14.13;100.00;97235.09;5132257;27;20043;-43
2022/05/12 01:07:41;;;;;;;9.98;3.90;;;;;;;14.07;100.00;97227.78;5131958;28;20074;-42
2022/05/12 01:10:09;;;;;;;8.80;3.65;;;;;;;13.99;100.00;97240.97;5132186;28;20051;-42
2022/05/12 01:12:37;;;;;;;5.43;3.67;;;;;;;13.94;100.00;97240.75;5132377;27;20085;-43
2022/05/12 01:15:04;;;;;;;15.35;4.07;;;;;;;13.95;100.00;97250.53;5132234;28;20047;-43
2022/05/12 01:17:30;;;;;;;13.25;4.30;;;;;;;13.93;100.00;97250.19;5132252;28;20149;-43
2022/05/12 01:19:57;;;;;;;9.13;3.50;;;;;;;13.96;100.00;97249.31;5132051;27;20058;-43
2022/05/12 01:22:40;;;;;;;9.77;4.38;;;;;;;14.02;100.00;97239.34;5132156;27;20092;-42
2022/05/12 01:25:09;;;;;;;14.02;3.90;;;;;;;14.12;100.00;97239.03;5131880;28;20043;-42
2022/05/12 01:27:36;;;;;;;12.13;3.97;;;;;;;14.25;100.00;97230.81;5131928;27;20058;-42
2022/05/12 01:30:04;;;;;;;8.93;3.72;;;;;;;14.29;100.00;97227.97;5131749;28;20047;-43
2022/05/12 01:32:30;;;;;;;10.30;3.65;;;;;;;14.40;100.00;97227.69;5131847;28;20059;-42
2022/05/12 01:34:57;;;;;;;9.30;3.30;;;;;;;14.46;100.00;97218.44;5131944;27;20047;-42
2022/05/12 01:37:24;;;;;;;8.55;3.33;;;;;;;14.53;100.00;97217.47;5131958;27;20103;-42
2022/05/12 01:39:51;;;;;;;5.78;3.08;;;;;;;14.59;100.00;97218.47;5131991;27;20050;-43
2022/05/12 01:42:18;;;;;;;15.10;3.72;;;;;;;14.57;100.00;97226.41;5131656;27;20051;-42
2022/05/12 01:44:45;;;;;;;8.00;3.20;;;;;;;14.64;100.00;97219.91;5131982;28;20047;-43
2022/05/12 01:47:12;;;;;;;8.20;3.38;;;;;;;14.73;100.00;97217.28;5131390;27;20047;-42
2022/05/12 01:49:39;;;;;;;6.45;3.85;;;;;;;14.78;100.00;97197.41;5131881;27;20047;-42
2022/05/12 01:52:06;;;;;;;9.00;3.53;;;;;;;14.83;100.00;97199.66;5131645;28;20141;-43
2022/05/12 01:54:32;;;;;;;7.70;3.20;;;;;;;14.85;100.00;97194.44;5131685;27;20043;-43
2022/05/12 01:56:59;;;;;;;8.57;3.53;;;;;;;14.90;100.00;97196.66;5131262;27;20043;-42
2022/05/12 01:59:26;;;;;;;9.30;3.40;;;;;;;14.92;100.00;97196.22;5131371;27;20145;-42
2022/05/12 02:01:53;;;;;;;9.23;3.55;;;;;;;14.96;100.00;97186.63;5130219;27;20043;-42
2022/05/12 02:04:19;;;;;;;12.88;4.07;;;;;;;15.01;100.00;97188.81;5131558;28;20058;-43
2022/05/12 02:06:46;;;;;;;5.10;3.00;;;;;;;15.08;100.00;97182.28;5131311;28;20062;-42
2022/05/12 02:09:13;;;;;;;8.82;3.38;;;;;;;15.13;100.00;97178.19;5131421;28;20062;-42
2022/05/12 02:11:39;;;;;;;13.50;4.05;;;;;;;15.17;100.00;97185.16;5131298;28;20062;-43
2022/05/12 02:14:06;;;;;;;9.32;4.90;;;;;;;15.13;100.00;97200.28;5131113;27;20046;-44
2022/05/12 02:16:34;;;;;;;8.57;4.05;;;;;;;15.15;100.00;97208.91;5131303;28;20130;-43
2022/05/12 02:19:01;;;;;;;13.65;4.40;;;;;;;15.20;100.00;97222.16;5131110;27;20055;-42
2022/05/12 02:21:27;;;;;;;11.15;3.40;;;;;;;15.15;100.00;97226.22;5131136;27;20433;-42
2022/05/12 02:23:54;;;;;;;8.15;3.63;;;;;;;15.15;100.00;97270.38;5130961;28;20047;-42
2022/05/12 02:26:20;;;;;;;8.98;4.00;;;;;;;15.15;100.00;97295.22;5130941;28;20570;-43
2022/05/12 02:28:46;;;;;;;8.75;3.78;;;;;;;15.19;100.00;97298.63;5130831;28;20047;-43
2022/05/12 02:31:12;;;;;;;6.15;3.90;;;;;;;15.22;100.00;97355.72;5130886;28;20047;-42
2022/05/12 02:33:39;;;;;;;8.68;4.90;;;;;;;15.17;100.00;97419.78;5130984;27;20497;-42
2022/05/12 02:36:06;;;;;;;15.02;4.53;;;;;;;15.15;100.00;97575.97;5130791;28;20498;-42
2022/05/12 02:38:32;;;;;;;16.95;5.05;;;;;;;15.07;100.00;97852.16;5131111;28;20058;-43
2022/05/12 02:40:58;;;;;;;14.13;5.65;;;;;;;14.93;100.00;98045.63;5130850;28;20085;-44
2022/05/12 02:43:24;;;;;;;14.93;5.65;;;;;;;14.78;100.00;98231.94;5130773;27;20442;-43
2022/05/12 02:45:52;;;;;;;23.60;6.68;;;;;;;14.47;100.00;98382.81;5130807;27;20062;-43
2022/05/12 02:48:19;;;;;;;15.02;6.07;;;;;;;14.31;100.00;98479.84;5130821;28;20043;-42
2022/05/12 02:50:46;;;;;;;11.73;6.20;;;;;;;14.17;100.00;98533.13;5130555;28;20395;-43
2022/05/12 02:53:12;;;;;;;16.73;7.32;;;;;;;14.03;100.00;98541.50;5130575;28;20100;-43
2022/05/12 02:55:38;;;;;;;14.23;9.75;;;;;;;13.93;100.00;98562.41;5130549;27;20417;-44
2022/05/12 02:58:05;;;;;;;32.53;9.93;;;;;;;13.89;100.00;98556.94;5130405;28;20055;-45
2022/05/12 03:00:33;;;;;;;13.88;7.97;;;;;;;13.77;100.00;98540.06;5130550;28;20043;-44
2022/05/12 03:02:59;;;;;;;27.38;9.80;;;;;;;13.67;100.00;98518.88;5130634;28;20133;-44
2022/05/12 03:05:25;;;;;;;15.65;8.95;;;;;;;13.61;100.00;98499.22;5130769;27;20051;-45
2022/05/12 03:07:52;;;;;;;18.90;8.82;;;;;;;13.57;100.00;98490.19;5130346;27;20059;-43
2022/05/12 03:10:19;;;;;;;19.23;8.98;;;;;;;13.60;100.00;98453.59;5130687;27;20051;-43
2022/05/12 03:12:45;;;;;;;14.63;8.88;;;;;;;13.55;100.00;98438.25;5132720;27;20183;-43
2022/05/12 03:15:12;;;;;;;20.85;11.02;;;;;;;13.48;100.00;98419.03;5134671;27;20051;-43
2022/05/12 03:17:39;;;;;;;19.95;10.07;;;;;;;13.52;100.00;98436.31;5134291;27;20055;-43
2022/05/12 03:20:09;;;;;;;22.00;10.95;;;;;;;13.55;100.00;98401.69;5134404;27;20106;-43
2022/05/12 03:22:36;;;;;;;22.70;11.65;;;;;;;13.58;100.00;98390.63;5133824;28;20043;-44
2022/05/12 03:25:04;;;;;;;23.05;11.68;;;;;;;13.64;100.00;98364.25;5133776;27;20096;-43
2022/05/12 03:27:30;;;;;;;35.80;12.50;;;;;;;13.67;100.00;98337.88;5133924;27;20055;-45
2022/05/12 03:29:56;;;;;;;15.55;10.25;;;;;;;13.65;100.00;98323.69;5134069;28;20429;-45
2022/05/12 03:32:23;;;;;;;18.92;10.23;;;;;;;13.60;100.00;98322.19;5134131;27;20051;-44
2022/05/12 03:34:50;;;;;;;24.15;11.90;;;;;;;13.63;100.00;98302.09;5133736;27;20054;-45
2022/05/12 03:37:17;;;;;;;24.58;12.05;;;;;;;13.58;100.00;98307.25;5133754;27;20062;-45
2022/05/12 03:39:44;;;;;;;22.38;11.20;;;;;;;13.57;100.00;98278.16;5133573;27;20047;-44
2022/05/12 03:42:12;;;;;;;17.27;10.70;;;;;;;13.55;100.00;98262.00;5133792;27;20055;-43
2022/05/12 03:44:49;;;;;;;27.33;11.85;;;;;;;13.52;100.00;98246.31;5133560;28;20057;-42
2022/05/12 03:47:19;;;;;;;24.48;11.90;;;;;;;13.55;100.00;98244.72;5133561;28;20418;-43
2022/05/12 03:49:46;;;;;;;23.67;11.35;;;;;;;13.57;100.00;98239.59;5133509;27;20146;-42
2022/05/12 03:52:12;;;;;;;31.17;16.05;;;;;;;13.67;100.00;98235.97;5133265;28;20043;-43
2022/05/12 03:54:40;;;;;;;27.80;13.77;;;;;;;13.69;100.00;98222.53;5133665;28;20047;-42
2022/05/12 03:57:06;;;;;;;31.10;16.08;;;;;;;13.75;100.00;98201.63;5133515;28;20051;-42
2022/05/12 03:59:34;;;;;;;23.88;13.32;;;;;;;13.77;100.00;98193.75;5133442;27;20047;-43
2022/05/12 04:02:00;;;;;;;24.33;13.88;;;;;;;13.81;100.00;98188.19;5133276;28;20069;-42
2022/05/12 04:04:26;;;;;;;26.33;13.00;;;;;;;13.81;100.00;98188.97;5133617;27;20047;-42
2022/05/12 04:06:53;;;;;;;19.13;11.40;;;;;;;13.77;100.00;98187.47;5133244;27;20058;-43
2022/05/12 04:09:19;;;;;;;16.85;11.98;;;;;;;13.76;100.00;98196.91;5133311;28;20502;-42
2022/05/12 04:11:45;;;;;;;27.38;14.18;;;;;;;13.84;100.00;98173.59;5133092;27;20047;-42
2022/05/12 04:14:11;;;;;;;23.02;14.55;;;;;;;13.91;100.00;98187.31;5133147;28;20051;-42
2022/05/12 04:16:39;;;;;;;26.15;14.45;;;;;;;13.97;100.00;98182.13;5133135;27;20484;-42
2022/05/12 04:19:06;;;;;;;22.42;12.10;;;;;;;13.96;100.00;98172.28;5132923;28;20050;-42
2022/05/12 04:21:34;;;;;;;18.90;10.77;;;;;;;13.87;100.00;98170.03;5132789;27;20101;-42
2022/05/12 04:24:01;;;;;;;18.83;12.18;;;;;;;13.93;100.00;98148.31;5131825;27;20055;-42
2022/05/12 04:26:27;;;;;;;24.98;14.48;;;;;;;13.91;100.00;98125.91;5133347;28;20054;-42
2022/05/12 04:28:54;;;;;;;27.02;15.35;;;;;;;13.96;100.00;98129.00;5132745;28;20051;-42
2022/05/12 04:31:20;;;;;;;26.70;16.45;;;;;;;13.89;100.00;98121.59;5133164;28;20055;-42
2022/05/12 04:36:31;;;;;;;28.02;16.13;;;;;;;13.94;100.00;98120.34;5133045;28;20130;-43
2022/05/12 04:38:59;;;;;;;28.98;17.25;;;;;;;14.01;100.00;98111.22;5132565;28;20047;-42
2022/05/12 04:41:25;;;;;;;22.05;14.45;;;;;;;13.94;100.00;98127.84;5132729;27;20469;-42
2022/05/12 04:43:52;;;;;;;33.50;18.25;;;;;;;14.00;100.00;98129.72;5132555;28;20529;-42
2022/05/12 04:46:18;;;;;;;27.67;15.00;;;;;;;14.12;100.00;98129.16;5132271;27;20043;-42
2022/05/12 04:48:44;;;;;;;27.40;22.85;;;;;;;14.09;100.00;98129.22;5132601;28;20048;-42
2022/05/12 04:51:11;;;;;;;25.05;13.02;;;;;;;14.05;100.00;98134.75;5132298;27;20525;-43
2022/05/12 04:53:38;;;;;;;32.40;15.00;;;;;;;14.06;100.00;98141.06;5132809;27;20093;-42
2022/05/12 04:56:04;;;;;;;26.38;13.27;;;;;;;14.06;100.00;98147.38;5132172;28;20498;-44
2022/05/12 04:58:31;;;;;;;28.88;15.50;;;;;;;14.08;100.00;98146.94;5132497;27;20054;-44
2022/05/12 05:00:57;;;;;;;20.02;13.18;;;;;;;14.09;100.00;98152.06;5132286;28;20054;-43
2022/05/12 05:03:24;;;;;;;22.92;14.40;;;;;;;14.07;100.00;98146.16;5132570;27;20418;-43
2022/05/12 05:05:50;;;;;;;31.13;14.13;;;;;;;14.06;100.00;98139.09;5132040;28;20090;-42
2022/05/12 05:08:19;;;;;;;23.45;12.52;;;;;;;14.07;100.00;98118.63;5131967;28;20422;-44
2022/05/12 05:10:45;;;;;;;26.55;14.45;;;;;;;14.12;100.00;98112.63;5131941;27;20057;-43
2022/05/12 05:13:11;;;;;;;27.42;14.10;;;;;;;14.11;100.00;98080.75;5132002;28;20051;-43
2022/05/12 05:15:38;;;;;;;26.58;12.95;;;;;;;14.10;100.00;98070.94;5132027;28;20940;-42
2022/05/12 05:18:04;;;;;;;21.13;12.85;;;;;;;14.14;100.00;98090.19;5131785;28;20055;-42
2022/05/12 05:20:30;;;;;;;26.30;12.57;;;;;;;14.17;100.00;98077.53;5132080;28;20051;-42
2022/05/12 05:22:57;;;;;;;17.10;12.13;;;;;;;14.16;100.00;98053.91;5132570;27;20417;-42
2022/05/12 05:25:24;;;;;;;21.33;12.82;;;;;;;14.11;100.00;98068.97;5132389;27;20464;-42
2022/05/12 05:27:54;;;;;;;16.13;10.18;;;;;;;14.18;100.00;98052.31;5131716;28;20059;-44
2022/05/12 05:30:24;;;;;;;28.33;11.77;;;;;;;14.33;100.00;98028.84;5131815;27;20058;-43
2022/05/12 05:32:50;;;;;;;13.85;8.40;;;;;;;14.53;100.00;98056.56;5131490;27;20058;-55
2022/05/12 05:35:17;;;;;;;18.63;9.20;;;;;;;14.93;100.00;98109.13;5131323;27;20051;-44
2022/05/12 05:37:44;;;;;;;17.27;10.90;;;;;;;15.19;100.00;98164.66;5131593;28;20051;-48
2022/05/12 05:40:14;;;;;;;16.55;10.70;;;;;;;15.26;100.00;98172.81;5131337;28;20066;-49
2022/05/12 05:42:42;;;;;;;23.35;11.85;;;;;;;15.52;100.00;98165.66;5131331;28;20055;-48
2022/05/12 05:45:11;;;;;;;22.58;11.95;;;;;;;15.73;100.00;98168.09;5131236;28;20047;-48
2022/05/12 05:47:37;;;;;;;20.05;11.45;;;;;;;16.04;100.00;98176.16;5131237;28;20059;-48
2022/05/12 05:50:05;;;;;;;14.20;10.77;;;;;;;16.16;100.00;98189.38;5131496;27;20074;-48
2022/05/12 05:55:15;;;;;;;12.10;8.65;;;;;;;16.30;100.00;98259.41;5131431;28;20051;-49
2022/05/12 05:57:43;;;;;;;17.92;11.43;;;;;;;16.59;100.00;98309.41;5131495;27;20061;-51
2022/05/12 06:00:12;;;;;;;20.88;12.55;;;;;;;16.84;100.00;98351.25;5131250;28;20183;-50
2022/05/12 06:02:38;;;;;;;25.23;11.57;;;;;;;17.18;100.00;98366.75;5130984;28;20054;-51
2022/05/12 06:05:06;;;;;;;22.77;13.55;;;;;;;17.50;100.00;98417.91;5131148;27;20051;-47
2022/05/12 06:07:34;;;;;;;20.25;11.23;;;;;;;17.42;100.00;98458.84;5130865;28;20054;-49
2022/05/12 06:10:01;;;;;;;23.92;16.17;;;;;;;17.44;100.00;98511.84;5131165;27;20043;-49
2022/05/12 06:12:29;;;;;;;27.02;14.02;;;;;;;17.27;100.00;98532.38;5131217;27;20476;-48
2022/05/12 06:14:56;;;;;;;33.05;21.10;;;;;;;17.10;100.00;98509.34;5131302;28;20418;-51
2022/05/12 06:17:23;;;;;;;28.75;14.55;;;;;;;17.12;100.00;98506.94;5130847;28;20100;-49
2022/05/12 06:19:50;;;;;;;35.55;22.17;;;;;;;17.25;100.00;98482.16;5131167;27;20073;-50
2022/05/12 06:22:18;;;;;;;33.42;15.07;;;;;;;17.36;100.00;98477.16;5130701;27;20051;-50
2022/05/12 06:24:45;;;;;;;30.58;19.75;;;;;;;17.42;100.00;98503.16;5130926;28;20051;-50
2022/05/12 06:27:11;;;;;;;21.98;13.80;;;;;;;17.44;100.00;98539.56;5130312;28;20104;-50
2022/05/12 06:29:37;;;;;;;34.15;20.50;;;;;;;17.47;100.00;98558.09;5130582;28;20055;-48
2022/05/12 06:32:06;;;;;;;43.17;18.35;;;;;;;17.58;100.00;98566.19;5130856;27;20054;-49
2022/05/12 06:34:32;;;;;;;46.00;18.88;;;;;;;17.65;100.00;98554.97;5130373;28;20051;-52
2022/05/12 06:36:59;;;;;;;40.78;19.02;;;;;;;17.73;100.00;98555.63;5130490;27;20472;-51
2022/05/12 06:39:25;;;;;;;44.95;24.55;;;;;;;17.76;100.00;98561.13;5130532;27;20055;-48
2022/05/12 06:41:52;;;;;;;44.15;25.73;;;;;;;18.77;100.00;98557.63;5130510;28;20058;-51
2022/05/12 06:44:19;;;;;;;27.48;17.52;;;;;;;19.83;100.00;98546.88;5130456;27;20059;-51
2022/05/12 06:46:45;;;;;;;43.53;22.98;;;;;;;20.82;100.00;98402.88;5130007;28;20046;-51
2022/05/12 06:49:12;;;;;;;44.95;20.85;;;;;;;21.30;100.00;98317.09;5130380;28;20050;-50
2022/05/12 06:51:39;;;;;;;36.42;17.40;;;;;;;21.78;100.00;98225.53;5130638;28;20100;-52
2022/05/12 06:54:05;;;;;;;25.50;15.73;;;;;;;22.35;100.00;97987.75;5130485;27;20078;-51
2022/05/12 06:56:32;;;;;;;47.35;20.27;;;;;;;22.61;100.00;97721.97;5130261;27;20053;-52
2022/05/12 06:58:58;;;;;;;118.65;36.95;;;;;;;22.97;100.00;97662.13;5130350;27;20047;-54
2022/05/12 07:01:26;;;;;;;34.50;17.45;;;;;;;23.23;100.00;97634.31;5130373;28;20066;-54
2022/05/12 07:03:53;;;;;;;179.77;54.72;;;;;;;23.77;100.00;97601.16;5130143;28;20054;-55
2022/05/12 07:06:20;;;;;;;41.38;18.73;;;;;;;23.94;100.00;97187.91;5130064;27;20050;-51
2022/05/12 07:08:47;;;;;;;15.02;10.02;;;;;;;24.46;100.00;97093.59;5129903;28;20055;-52
2022/05/12 07:11:13;;;;;;;13.88;10.77;;;;;;;25.04;100.00;97136.63;5130413;28;20104;-53
2022/05/12 07:13:40;;;;;;;15.93;12.23;;;;;;;24.31;100.00;97072.19;5130099;28;20104;-53
2022/05/12 07:16:08;;;;;;;22.17;12.20;;;;;;;23.87;100.00;97137.28;5130155;28;20138;-55
2022/05/12 07:18:35;;;;;;;20.42;14.57;;;;;;;23.89;100.00;97261.44;5129982;28;20051;-52
2022/05/12 07:26:39;;;;;;;33.10;18.80;;;;;;;21.28;100.00;97898.66;5130153;28;20418;-54
2022/05/12 07:29:09;;;;;;;33.90;20.70;;;;;;;20.57;100.00;98094.72;5128267;28;20138;-51
2022/05/12 07:31:36;;;;;;;41.40;21.30;;;;;;;20.00;100.00;98305.50;5129795;28;20051;-53
2022/05/12 07:34:02;;;;;;;36.40;22.38;;;;;;;19.28;100.00;98434.84;5130081;28;20049;-51
2022/05/12 07:36:32;;;;;;;41.05;24.65;;;;;;;18.75;100.00;98440.66;5129815;28;20059;-52
2022/05/12 07:39:00;;;;;;;24.98;16.27;;;;;;;18.26;100.00;98389.97;5129839;28;20474;-51
2022/05/12 07:41:27;;;;;;;25.58;20.73;;;;;;;17.73;100.00;98398.38;5129748;28;20059;-51
2022/05/12 07:43:54;;;;;;;29.98;22.25;;;;;;;17.34;100.00;98476.81;5129971;28;20058;-54
2022/05/12 07:46:24;;;;;;;35.70;18.58;;;;;;;17.15;100.00;98417.44;5129817;28;20047;-53
2022/05/12 07:48:51;;;;;;;35.03;29.70;;;;;;;17.25;100.00;98355.50;5129657;28;20151;-54
2022/05/12 07:51:18;;;;;;;27.90;18.25;;;;;;;18.18;100.00;98272.88;5129546;28;20096;-55
2022/05/12 07:53:47;;;;;;;27.77;17.50;;;;;;;19.59;100.00;98261.97;5129621;28;20097;-55
2022/05/12 07:56:15;;;;;;;22.60;20.27;;;;;;;20.07;100.00;98360.13;5130017;28;20852;-54
2022/05/12 07:58:42;;;;;;;25.77;21.65;;;;;;;20.03;100.00;98413.13;5131964;27;20456;-54
2022/05/12 08:01:08;;;;;;;19.38;17.45;;;;;;;20.01;100.00;98423.13;5133537;28;20050;-52
2022/05/12 08:03:35;;;;;;;25.88;20.65;;;;;;;20.66;100.00;98414.22;5133246;28;20057;-53
2022/05/12 08:06:01;;;;;;;22.48;14.25;;;;;;;21.47;100.00;98423.63;5133337;28;20066;-52
2022/05/12 08:08:28;;;;;;;46.20;19.67;;;;;;;21.57;100.00;98351.94;5132867;28;20047;-54
2022/05/12 08:10:55;;;;;;;50.50;18.42;;;;;;;21.44;100.00;98211.84;5133222;28;20344;-55
2022/05/12 08:13:23;;;;;;;40.67;17.00;;;;;;;22.34;100.00;97921.22;5133220;28;20051;-56
2022/05/12 08:15:50;;;;;;;25.52;13.25;;;;;;;23.01;100.00;97532.13;5133262;28;20146;-56
2022/05/12 08:18:17;;;;;;;27.25;16.02;;;;;;;23.57;100.00;97330.63;5133193;28;20047;-53
2022/05/12 08:20:44;;;;;;;24.20;16.13;;;;;;;24.32;100.00;97187.75;5132890;28;20051;-55
2022/05/12 08:23:11;;;;;;;24.45;18.80;;;;;;;23.95;100.00;97521.72;5133377;28;20055;-57
2022/05/12 08:25:37;;;;;;;27.33;21.30;;;;;;;23.37;100.00;97602.72;5132812;28;20047;-53
2022/05/12 08:28:04;;;;;;;24.73;19.75;;;;;;;23.29;100.00;97702.22;5133283;28;20101;-53
2022/05/12 08:30:31;;;;;;;26.63;20.10;;;;;;;22.85;100.00;97755.38;5132254;28;20070;-51
2022/05/12 08:32:57;;;;;;;27.33;19.33;;;;;;;22.45;100.00;97860.78;5132382;28;20043;-52
2022/05/12 08:35:24;;;;;;;20.23;16.20;;;;;;;21.90;100.00;97704.91;5132126;28;20062;-53
2022/05/12 08:37:50;;;;;;;18.90;16.85;;;;;;;21.12;100.00;97760.44;5132201;28;20058;-52
2022/05/12 08:40:28;;;;;;;19.95;16.70;;;;;;;20.89;100.00;97968.06;5132137;28;20053;-52
2022/05/12 08:42:59;;;;;;;18.35;15.93;;;;;;;20.86;100.00;97943.91;5132088;28;20043;-55
2022/05/12 08:45:25;;;;;;;19.30;16.42;;;;;;;21.23;100.00;97968.97;5132484;28;20055;-52
2022/05/12 08:47:52;;;;;;;16.85;15.18;;;;;;;21.58;100.00;97977.78;5132154;28;20057;-52
2022/05/12 08:50:22;;;;;;;18.52;15.65;;;;;;;21.91;100.00;97772.63;5132290;28;20395;-56
2022/05/12 08:52:52;;;;;;;22.33;17.08;;;;;;;22.61;100.00;97915.47;5132315;28;20047;-55
2022/05/12 08:55:24;;;;;;;21.60;15.40;;;;;;;23.31;100.00;97665.41;5132332;28;20051;-53
2022/05/12 08:57:56;;;;;;;19.30;14.05;;;;;;;23.57;100.00;97436.16;5132202;28;20108;-56
2022/05/12 09:00:24;;;;;;;17.27;13.85;;;;;;;23.69;100.00;97258.75;5132051;28;20047;-55
2022/05/12 09:03:04;;;;;;;17.27;14.63;;;;;;;22.94;100.00;97158.13;5131977;28;20062;-55
2022/05/12 09:05:36;;;;;;;15.90;13.80;;;;;;;22.83;100.00;97188.75;5132031;28;20335;-56
2022/05/12 09:08:11;;;;;;;16.35;13.10;;;;;;;23.00;100.00;97272.72;5132236;28;20047;-53
2022/05/12 09:10:49;;;;;;;13.95;11.18;;;;;;;22.61;100.00;97051.72;5131214;27;20058;-54
2022/05/12 09:13:23;;;;;;;25.33;14.23;;;;;;;22.75;100.00;97151.34;5132220;28;20070;-55
2022/05/12 09:15:56;;;;;;;15.50;12.38;;;;;;;22.98;100.00;97167.03;5131740;28;20043;-54
2022/05/12 09:18:29;;;;;;;14.95;10.38;;;;;;;23.25;100.00;97081.81;5131872;28;20051;-57
2022/05/12 09:21:00;;;;;;;15.05;11.77;;;;;;;23.52;100.00;96937.00;5132021;28;20062;-56
2022/05/12 09:23:26;;;;;;;13.02;10.73;;;;;;;23.39;100.00;96858.44;5131815;28;20057;-56
2022/05/12 09:25:52;;;;;;;13.38;11.23;;;;;;;23.87;100.00;96810.66;5131892;28;20043;-53
2022/05/12 09:28:27;;;;;;;14.90;9.98;;;;;;;23.96;100.00;96857.22;5131719;28;20051;-56
2022/05/12 09:30:54;;;;;;;14.32;10.65;;;;;;;23.92;100.00;96831.50;5131580;28;20042;-53
2022/05/12 09:33:29;;;;;;;11.80;9.73;;;;;;;23.79;100.00;96748.13;5131686;28;20434;-56
2022/05/12 09:35:57;;;;;;;10.57;9.05;;;;;;;24.52;100.00;96920.72;5132032;28;20047;-57
2022/05/12 09:38:26;;;;;;;16.20;9.10;;;;;;;25.02;100.00;96687.13;5131513;28;20066;-57
2022/05/12 09:40:53;;;;;;;9.77;8.25;;;;;;;24.06;100.00;96661.75;5131927;28;20119;-55
2022/05/12 09:43:26;;;;;;;11.73;8.23;;;;;;;23.47;100.00;96669.34;5131932;28;20417;-56
2022/05/12 09:46:06;;;;;;;14.80;7.68;;;;;;;22.96;100.00;96699.41;5131596;28;20122;-54
2022/05/12 09:48:34;;;;;;;13.15;9.35;;;;;;;22.68;100.00;96811.81;5131453;28;20055;-54
2022/05/12 09:51:21;;;;;;;10.77;9.23;;;;;;;22.57;100.00;96869.69;5131464;28;20051;-54
2022/05/12 09:53:49;;;;;;;11.25;8.32;;;;;;;22.72;100.00;96926.84;5131534;28;20070;-54
2022/05/12 09:56:29;;;;;;;10.90;8.95;;;;;;;22.92;100.00;96842.09;5131365;28;20101;-56
2022/05/12 09:59:06;;;;;;;9.57;7.68;;;;;;;23.79;100.00;96882.41;5131275;28;20407;-56
2022/05/12 10:01:34;;;;;;;8.82;8.00;;;;;;;24.29;100.00;96821.97;5131625;28;20158;-57
2022/05/12 10:09:51;;;;;;;32.40;11.68;;;;;;;22.99;100.00;96966.59;5130823;28;20112;-56
2022/05/12 10:12:22;;;;;;;16.20;11.30;;;;;;;22.59;100.00;96995.59;5131251;28;20050;-52
2022/05/12 10:14:54;;;;;;;10.40;8.60;;;;;;;22.26;100.00;97055.53;5131017;28;20134;-55
2022/05/12 10:17:26;;;;;;;10.75;8.93;;;;;;;22.02;100.00;97189.69;5130862;28;20251;-53
2022/05/12 10:19:54;;;;;;;20.65;9.40;;;;;;;21.80;100.00;97330.44;5130930;28;20062;-56
2022/05/12 10:22:31;;;;;;;14.43;10.07;;;;;;;21.50;100.00;97482.28;5129952;27;20063;-53
2022/05/12 10:25:07;;;;;;;33.65;13.10;;;;;;;21.23;100.00;97648.47;5130792;28;20055;-55
2022/05/12 10:27:47;;;;;;;19.58;13.13;;;;;;;21.03;100.00;97746.56;5130842;28;20051;-55
2022/05/12 10:30:26;;;;;;;59.63;21.88;;;;;;;20.64;100.00;97963.53;5131254;28;20498;-54
2022/05/12 10:33:05;;;;;;;22.02;12.85;;;;;;;20.11;100.00;98007.44;5130932;28;20051;-55
2022/05/12 10:35:41;;;;;;;27.20;15.18;;;;;;;19.63;100.00;98059.69;5130611;28;20047;-56
2022/05/12 10:38:17;;;;;;;24.40;17.10;;;;;;;19.19;100.00;98026.28;5130865;28;20066;-57
2022/05/12 10:40:48;;;;;;;23.00;16.73;;;;;;;18.95;100.00;98028.69;5130845;28;20639;-56
2022/05/12 10:43:39;;;;;;;54.15;21.65;;;;;;;18.69;100.00;98000.19;5130764;28;20076;-56
2022/05/12 10:46:12;;;;;;;28.67;21.83;;;;;;;18.46;100.00;97945.84;5130554;28;20055;-54
2022/05/12 10:48:49;;;;;;;19.50;14.02;;;;;;;18.31;100.00;97878.97;5130178;28;20043;-53
2022/05/12 10:51:24;;;;;;;27.40;22.73;;;;;;;18.37;100.00;97837.56;5130761;28;20054;-53
2022/05/12 10:54:06;;;;;;;21.88;19.60;;;;;;;18.71;100.00;97776.44;5130323;28;20054;-52
2022/05/12 10:56:41;;;;;;;20.58;18.58;;;;;;;19.05;100.00;97749.81;5130901;28;20104;-56
2022/05/12 10:59:43;;;;;;;18.70;15.95;;;;;;;19.63;100.00;97732.44;5130276;28;20061;-57
2022/05/12 11:02:16;;;;;;;16.90;13.13;;;;;;;19.79;100.00;97750.06;5130328;28;20118;-56
2022/05/12 11:04:48;;;;;;;21.23;12.93;;;;;;;19.72;100.00;97829.75;5128389;28;20075;-55
2022/05/12 11:07:26;;;;;;;20.20;18.27;;;;;;;19.62;100.00;97866.28;5130325;28;20047;-53
2022/05/12 11:10:04;;;;;;;22.00;19.50;;;;;;;19.46;100.00;97876.44;5128342;28;20109;-52
2022/05/12 11:12:35;;;;;;;23.15;20.83;;;;;;;19.31;100.00;97894.09;5130125;28;20101;-55
2022/05/12 11:15:07;;;;;;;21.88;19.40;;;;;;;19.16;100.00;97924.41;5128403;28;20047;-55
2022/05/12 11:17:39;;;;;;;25.33;22.70;;;;;;;19.01;100.00;97946.38;5129669;28;20378;-53
2022/05/12 11:20:20;;;;;;;26.45;22.73;;;;;;;18.76;100.00;98081.28;5129467;28;20055;-56
2022/05/12 11:22:52;;;;;;;15.77;9.02;;;;;;;18.04;100.00;98109.66;5128075;28;20498;-51
2022/05/12 11:25:29;;;;;;;16.10;6.30;;;;;;;16.31;100.00;98217.50;5129973;28;20058;-53
2022/05/12 11:31:04;;;;;;;6.85;1.73;;;;;;;15.16;100.00;98124.09;5129983;28;20425;-54
2022/05/12 11:33:36;;;;;;;6.35;2.15;;;;;;;15.19;100.00;98103.94;5131998;27;20050;-57
2022/05/12 11:36:03;;;;;;;6.05;2.05;;;;;;;15.28;100.00;98080.09;5131903;28;20826;-54
2022/05/12 11:38:59;;;;;;;3.92;1.38;;;;;;;15.00;100.00;98125.56;5133848;28;20050;-55
2022/05/12 11:41:38;;;;;;;2.92;1.30;;;;;;;14.96;100.00;98115.75;5131702;28;20058;-55